createdAt,value
2022-12-08T00:00:26.891Z,100623.00
2022-12-08T00:04:28.461Z,100614.72
2022-12-08T00:08:49.002Z,100616.34
2022-12-08T00:12:50.499Z,100618.97
2022-12-08T00:16:52.351Z,100608.59
2022-12-08T00:20:58.189Z,100610.56
2022-12-08T00:24:59.632Z,100597.50
2022-12-08T00:29:01.107Z,100603.41
2022-12-08T00:33:02.568Z,100603.66
2022-12-08T00:37:04.029Z,100604.75
2022-12-08T00:41:13.092Z,100599.41
2022-12-08T00:45:14.738Z,100598.66
2022-12-08T00:49:17.024Z,100596.59
2022-12-08T00:53:18.569Z,100587.81
2022-12-08T00:57:20.009Z,100582.44
2022-12-08T01:01:21.989Z,100576.00
2022-12-08T01:05:23.471Z,100573.16
2022-12-08T01:09:24.959Z,100567.56
2022-12-08T01:13:26.381Z,100562.38
2022-12-08T01:17:27.857Z,100566.06
2022-12-08T01:21:29.790Z,100564.53
2022-12-08T01:25:33.779Z,100552.06
2022-12-08T01:29:35.261Z,100553.75
2022-12-08T01:33:36.694Z,100539.97
2022-12-08T01:37:38.174Z,100545.09
2022-12-08T01:41:39.852Z,100538.22
2022-12-08T01:45:43.080Z,100546.34
2022-12-08T01:49:44.754Z,100532.66
2022-12-08T01:53:47.447Z,100534.38
2022-12-08T01:57:53.300Z,100522.44
2022-12-08T02:01:55.114Z,100530.16
2022-12-08T02:05:57.550Z,100512.63
2022-12-08T02:09:59.225Z,100522.75
2022-12-08T02:14:03.405Z,100509.00
2022-12-08T02:18:30.441Z,100509.09
2022-12-08T02:22:47.926Z,100514.13
2022-12-08T02:27:12.707Z,100502.00
2022-12-08T02:31:36.890Z,100490.63
2022-12-08T02:36:04.579Z,100490.81
2022-12-08T02:40:28.761Z,100491.94
2022-12-08T02:44:35.441Z,100485.00
2022-12-08T02:48:37.360Z,100484.47
2022-12-08T02:52:41.609Z,100484.28
2022-12-08T02:57:05.066Z,100486.16
2022-12-08T03:01:18.292Z,100484.00
2022-12-08T03:05:53.931Z,100488.38
2022-12-08T03:10:03.388Z,100487.31
2022-12-08T03:14:08.682Z,100479.53
2022-12-08T03:18:13.823Z,100474.91
2022-12-08T03:22:19.778Z,100465.31
2022-12-08T03:26:42.000Z,100460.06
2022-12-08T03:30:48.059Z,100460.22
2022-12-08T03:34:51.503Z,100472.28
2022-12-08T03:38:54.162Z,100480.03
2022-12-08T03:42:55.571Z,100476.84
2022-12-08T03:46:57.008Z,100470.69
2022-12-08T03:50:58.450Z,100470.38
2022-12-08T03:54:59.896Z,100477.56
2022-12-08T03:59:01.933Z,100466.69
2022-12-08T04:03:04.495Z,100454.94
2022-12-08T04:07:05.982Z,100454.03
2022-12-08T04:11:07.600Z,100446.28
2022-12-08T04:15:09.798Z,100434.88
2022-12-08T04:19:11.198Z,100437.69
2022-12-08T04:23:12.971Z,100420.63
2022-12-08T04:27:14.547Z,100416.22
2022-12-08T04:31:16.064Z,100413.03
2022-12-08T04:35:17.612Z,100418.13
2022-12-08T04:39:19.082Z,100400.78
2022-12-08T04:43:21.366Z,100398.09
2022-12-08T04:47:22.861Z,100395.25
2022-12-08T04:51:24.317Z,100409.19
2022-12-08T04:55:25.727Z,100401.69
2022-12-08T04:59:27.132Z,100393.94
2022-12-08T05:03:28.961Z,100385.66
2022-12-08T05:07:30.381Z,100378.69
2022-12-08T05:11:31.774Z,100379.47
2022-12-08T05:15:33.220Z,100370.81
2022-12-08T05:19:34.636Z,100366.31
2022-12-08T05:23:36.195Z,100373.06
2022-12-08T05:27:37.669Z,100370.59
2022-12-08T05:31:39.280Z,100371.41
2022-12-08T05:35:40.863Z,100369.59
2022-12-08T05:39:42.284Z,100359.47
2022-12-08T05:43:43.828Z,100356.28
2022-12-08T05:47:45.242Z,100354.56
2022-12-08T05:51:46.658Z,100350.25
2022-12-08T05:55:48.115Z,100354.66
2022-12-08T05:59:49.537Z,100338.69
2022-12-08T06:03:52.110Z,100340.69
2022-12-08T06:07:53.661Z,100330.59
2022-12-08T06:11:55.109Z,100331.72
2022-12-08T06:15:56.517Z,100340.97
2022-12-08T06:19:57.957Z,100331.56
2022-12-08T06:23:59.387Z,100330.53
2022-12-08T06:28:00.839Z,100330.69
2022-12-08T06:32:02.304Z,100329.84
2022-12-08T06:36:04.782Z,100334.56
2022-12-08T06:40:07.158Z,100335.78
2022-12-08T06:44:08.700Z,100343.66
2022-12-08T06:48:10.090Z,100340.50
2022-12-08T06:52:11.524Z,100341.50
2022-12-08T06:56:15.679Z,100351.38
2022-12-08T07:00:18.048Z,100353.28
2022-12-08T07:04:19.437Z,100348.22
2022-12-08T07:08:20.940Z,100346.22
2022-12-08T07:12:22.583Z,100348.88
2022-12-08T07:16:24.376Z,100349.13
2022-12-08T07:20:25.829Z,100354.44
2022-12-08T07:24:27.263Z,100357.63
2022-12-08T07:28:33.036Z,100364.59
2022-12-08T07:32:34.438Z,100376.94
2022-12-08T07:36:36.063Z,100377.94
2022-12-08T07:40:39.090Z,100385.84
2022-12-08T07:44:40.523Z,100390.31
2022-12-08T07:48:42.191Z,100385.94
2022-12-08T07:52:43.560Z,100392.72
2022-12-08T07:56:45.495Z,100394.03
2022-12-08T08:00:46.971Z,100392.59
2022-12-08T08:04:51.561Z,100389.66
2022-12-08T08:08:53.168Z,100390.72
2022-12-08T08:12:54.661Z,100384.41
2022-12-08T08:16:57.272Z,100395.25
2022-12-08T08:21:06.720Z,100398.84
2022-12-08T08:25:22.736Z,100403.75
2022-12-08T08:29:24.239Z,100404.00
2022-12-08T08:33:26.235Z,100395.06
2022-12-08T08:37:28.316Z,100403.63
2022-12-08T08:41:29.833Z,100402.22
2022-12-08T08:45:32.111Z,100404.31
2022-12-08T08:49:33.557Z,100394.09
2022-12-08T08:53:35.410Z,100406.44
2022-12-08T08:57:37.070Z,100402.97
2022-12-08T09:01:38.575Z,100408.03
2022-12-08T09:05:41.304Z,100419.78
2022-12-08T09:09:42.929Z,100418.44
2022-12-08T09:13:46.992Z,100423.16
2022-12-08T09:17:48.405Z,100427.09
2022-12-08T09:21:49.916Z,100427.00
2022-12-08T09:25:51.336Z,100426.09
2022-12-08T09:29:52.750Z,100430.22
2022-12-08T09:33:54.243Z,100421.84
2022-12-08T09:37:55.658Z,100426.25
2022-12-08T09:42:02.599Z,100421.09
2022-12-08T09:46:07.542Z,100424.50
2022-12-08T09:50:33.872Z,100424.34
2022-12-08T10:05:27.554Z,100410.16
2022-12-08T10:09:38.625Z,100408.09
2022-12-08T10:14:04.030Z,100412.44
2022-12-08T10:18:25.425Z,100416.34
2022-12-08T10:22:33.693Z,100407.88
2022-12-08T10:26:35.160Z,100398.31
2022-12-08T10:30:37.084Z,100406.44
2022-12-08T10:34:59.346Z,100402.09
2022-12-08T10:39:01.140Z,100403.53
2022-12-08T10:43:05.099Z,100410.81
2022-12-08T10:47:14.009Z,100410.75
2022-12-08T10:51:25.026Z,100409.44
2022-12-08T10:55:28.521Z,100404.09
2022-12-08T10:59:33.464Z,100398.41
2022-12-08T11:03:52.815Z,100396.75
2022-12-08T11:07:55.577Z,100391.13
2022-12-08T11:12:07.261Z,100398.50
2022-12-08T11:16:13.617Z,100403.69
2022-12-08T11:20:15.039Z,100398.28
2022-12-08T11:24:16.437Z,100391.13
2022-12-08T11:28:23.612Z,100394.78
2022-12-08T11:32:25.474Z,100388.28
2022-12-08T11:36:30.423Z,100394.50
2022-12-08T11:40:37.281Z,100399.66
2022-12-08T11:44:46.998Z,100402.50
2022-12-08T11:49:06.796Z,100404.72
2022-12-08T11:53:22.363Z,100395.53
2022-12-08T11:57:26.336Z,100403.56
2022-12-08T12:01:27.926Z,100409.81
2022-12-08T12:06:12.546Z,100403.50
2022-12-08T12:10:53.021Z,100408.38
2022-12-08T12:15:13.395Z,100402.16
2022-12-08T12:19:18.022Z,100396.44
2022-12-08T12:23:46.687Z,100399.00
2022-12-08T12:27:49.433Z,100400.06
2022-12-08T12:31:59.265Z,100400.59
2022-12-08T12:36:07.138Z,100402.63
2022-12-08T12:40:22.182Z,100397.34
2022-12-08T12:44:37.533Z,100388.44
2022-12-08T12:48:38.997Z,100388.50
2022-12-08T12:52:42.204Z,100398.16
2022-12-08T12:57:13.094Z,100404.34
2022-12-08T13:01:20.407Z,100410.38
2022-12-08T13:05:28.795Z,100410.75
2022-12-08T13:09:35.435Z,100406.22
2022-12-08T13:13:38.530Z,100411.13
2022-12-08T13:17:45.143Z,100410.19
2022-12-08T13:21:46.737Z,100420.78
2022-12-08T13:25:49.849Z,100423.84
2022-12-08T13:30:30.103Z,100429.75
2022-12-08T13:34:41.651Z,100444.31
2022-12-08T13:38:47.074Z,100432.91
2022-12-08T13:43:05.366Z,100437.22
2022-12-08T14:00:37.058Z,100459.00
2022-12-08T14:05:09.505Z,100460.75
2022-12-08T14:09:10.366Z,100462.97
2022-12-08T14:13:13.553Z,100467.66
2022-12-08T14:17:20.081Z,100477.97
2022-12-08T14:21:21.933Z,100484.81
2022-12-08T14:25:25.465Z,100473.38
2022-12-08T14:29:39.361Z,100477.13
2022-12-08T14:33:41.299Z,100477.59
2022-12-08T14:37:46.294Z,100485.06
2022-12-08T14:42:01.040Z,100488.00
2022-12-08T14:46:06.145Z,100497.03
2022-12-08T14:50:35.462Z,100496.16
2022-12-08T14:54:39.222Z,100494.34
2022-12-08T14:58:41.419Z,100502.72
2022-12-08T15:02:46.697Z,100505.56
2022-12-08T15:06:59.167Z,100505.06
2022-12-08T15:11:31.618Z,100513.00
2022-12-08T15:16:06.374Z,100518.13
2022-12-08T15:20:38.439Z,100521.59
2022-12-08T15:24:39.878Z,100522.16
2022-12-08T15:28:41.303Z,100533.66
2022-12-08T15:32:43.911Z,100533.97
2022-12-08T15:36:46.483Z,100539.88
2022-12-08T15:40:48.570Z,100555.66
2022-12-08T15:44:50.033Z,100557.03
2022-12-08T15:48:57.794Z,100551.56
2022-12-08T15:52:59.589Z,100563.28
2022-12-08T15:57:19.105Z,100552.94
2022-12-08T16:01:22.037Z,100568.50
2022-12-08T16:05:42.840Z,100565.53
2022-12-08T16:09:47.004Z,100559.19
2022-12-08T16:13:57.069Z,100567.25
2022-12-08T16:17:59.891Z,100572.03
2022-12-08T16:30:44.767Z,100581.25
2022-12-08T16:34:46.457Z,100582.34
2022-12-08T16:38:47.875Z,100582.53
2022-12-08T16:42:49.962Z,100578.78
2022-12-08T16:46:51.633Z,100588.28
2022-12-08T16:50:53.962Z,100599.25
2022-12-08T16:54:55.487Z,100592.81
2022-12-08T16:58:57.333Z,100588.38
2022-12-08T17:02:58.914Z,100589.41
2022-12-08T17:07:00.456Z,100591.53
2022-12-08T17:11:08.081Z,100593.28
2022-12-08T17:15:16.414Z,100587.81
2022-12-08T17:19:17.852Z,100594.06
2022-12-08T17:23:19.327Z,100592.75
2022-12-08T17:27:20.753Z,100595.69
2022-12-08T17:31:26.169Z,100592.44
2022-12-08T17:35:31.042Z,100590.28
2022-12-08T17:39:33.591Z,100595.66
2022-12-08T17:43:35.114Z,100599.19
2022-12-08T17:47:36.997Z,100605.34
2022-12-08T17:51:38.467Z,100598.81
2022-12-08T17:55:43.378Z,100587.81
2022-12-08T17:59:44.811Z,100594.63
2022-12-08T18:03:46.255Z,100606.97
2022-12-08T18:07:47.788Z,100600.28
2022-12-08T18:11:49.349Z,100585.59
2022-12-08T18:15:50.764Z,100587.19
2022-12-08T18:19:52.479Z,100585.44
2022-12-08T18:23:53.972Z,100588.84
2022-12-08T18:27:55.427Z,100594.50
2022-12-08T18:31:56.983Z,100592.72
2022-12-08T18:35:58.443Z,100585.59
2022-12-08T18:39:59.975Z,100582.28
2022-12-08T18:44:01.427Z,100581.59
2022-12-08T18:48:03.191Z,100577.72
2022-12-08T18:52:04.957Z,100563.78
2022-12-08T18:56:06.965Z,100582.69
2022-12-08T19:00:12.115Z,100586.22
2022-12-08T19:04:28.390Z,100594.66
2022-12-08T19:08:31.696Z,100602.97
2022-12-08T19:12:33.400Z,100600.41
2022-12-08T19:16:35.089Z,100600.47
2022-12-08T19:20:36.586Z,100594.81
2022-12-08T20:54:32.471Z,100644.41
2022-12-08T20:58:34.154Z,100651.56
2022-12-08T21:02:45.125Z,100645.94
2022-12-08T21:06:47.130Z,100644.97
2022-12-08T21:10:54.835Z,100640.88
2022-12-08T21:15:01.649Z,100641.25
2022-12-08T21:19:04.645Z,100638.06
2022-12-08T21:23:08.656Z,100652.66
2022-12-08T21:27:10.272Z,100661.09
2022-12-08T21:31:16.421Z,100662.81
2022-12-08T21:35:20.444Z,100668.06
2022-12-08T21:39:22.001Z,100672.91
2022-12-08T21:43:26.356Z,100670.56
2022-12-08T21:47:28.035Z,100673.13
2022-12-08T21:51:30.501Z,100667.50
2022-12-08T21:55:32.249Z,100663.53
2022-12-08T21:59:34.042Z,100658.81
2022-12-08T22:03:36.932Z,100656.59
2022-12-08T22:07:41.864Z,100655.91
2022-12-08T22:11:44.147Z,100659.97
2022-12-08T22:15:45.973Z,100655.91
2022-12-08T22:19:47.590Z,100658.38
2022-12-08T22:23:49.764Z,100658.81
2022-12-08T22:27:51.646Z,100656.66
2022-12-08T22:31:56.525Z,100659.34
2022-12-08T22:36:08.239Z,100661.78
2022-12-08T22:40:12.840Z,100666.03
2022-12-08T22:44:15.821Z,100653.84
2022-12-08T22:48:18.043Z,100662.91
2022-12-08T22:52:20.248Z,100666.16
2022-12-08T22:56:25.095Z,100671.75
2022-12-08T23:00:26.689Z,100665.63
2022-12-08T23:04:28.536Z,100660.00
2022-12-08T23:08:30.114Z,100656.47
2022-12-08T23:12:32.040Z,100666.25
2022-12-08T23:16:33.740Z,100657.81
2022-12-08T23:20:35.262Z,100662.34
2022-12-08T23:24:36.788Z,100664.44
2022-12-08T23:28:38.383Z,100668.03
2022-12-08T23:32:40.106Z,100666.56
2022-12-08T23:36:41.838Z,100672.06
2022-12-08T23:40:43.257Z,100674.09
2022-12-08T23:44:44.661Z,100667.16
2022-12-08T23:48:46.423Z,100669.47
2022-12-08T23:52:47.826Z,100664.09
2022-12-08T23:56:49.271Z,100664.13
